CSN147 ZBTJ-RJCK
Flight info
| Callsign | CSN147 |
|---|---|
| Flight time | N/A |
| Altitude | 351 |
| Route | MUGLO W34 ANRAT A326 DONVO G597 AGAVO/N0453F350 Y644 EGOBA G597 KAE B467 TENAS L512 KAMSA Z171 NOMAS Z17 MRE Y13 SMELT |
| Aircraft | A321/M-SDE2E3GHIJ3J4J5LM1ORWXY/LB1D1 |
Departure
| Time | 2026-05-04 12:10 |
|---|---|
| Airport | Tianjin Binhai International Airport (ZBTJ) |
Arrival
| Time | N/A |
|---|---|
| Airport | Kushiro Airport (RJCK) |
| Time | Latitude | Longitude | Altitude | Speed | Heading |
|---|---|---|---|---|---|
| 2026-05-04 11:58 | 39.12443 | 117.35875 | 19 ft | 0 kts | 334° |
| 2026-05-04 12:00 | 39.12425 | 117.35887 | 21 ft | 4 kts | 323° |
| 2026-05-04 12:01 | 39.12406 | 117.35911 | 19 ft | 4 kts | 300° |
| 2026-05-04 12:01 | 39.12398 | 117.35942 | 20 ft | 4 kts | 268° |
| 2026-05-04 12:02 | 39.12402 | 117.35967 | 21 ft | 0 kts | 244° |
| 2026-05-04 12:03 | 39.12396 | 117.35952 | 22 ft | 6 kts | 245° |
| 2026-05-04 12:03 | 39.12372 | 117.35892 | 21 ft | 8 kts | 242° |
| 2026-05-04 12:04 | 39.12347 | 117.35825 | 19 ft | 9 kts | 245° |
| 2026-05-04 12:04 | 39.12318 | 117.35745 | 20 ft | 12 kts | 245° |
| 2026-05-04 12:04 | 39.12288 | 117.35624 | 19 ft | 17 kts | 259° |
| 2026-05-04 12:04 | 39.12326 | 117.35551 | 21 ft | 9 kts | 318° |
| 2026-05-04 12:05 | 39.12321 | 117.35458 | 19 ft | 14 kts | 251° |
| 2026-05-04 12:05 | 39.12273 | 117.35325 | 19 ft | 19 kts | 245° |
| 2026-05-04 12:05 | 39.12221 | 117.35178 | 19 ft | 14 kts | 253° |
| 2026-05-04 12:05 | 39.12295 | 117.35090 | 19 ft | 18 kts | 335° |
| 2026-05-04 12:06 | 39.12424 | 117.35011 | 19 ft | 23 kts | 333° |
| 2026-05-04 12:06 | 39.12568 | 117.34919 | 19 ft | 23 kts | 334° |
| 2026-05-04 12:06 | 39.12714 | 117.34830 | 19 ft | 21 kts | 335° |
| 2026-05-04 12:06 | 39.12849 | 117.34747 | 20 ft | 22 kts | 334° |
| 2026-05-04 12:07 | 39.12991 | 117.34662 | 19 ft | 23 kts | 335° |
| 2026-05-04 12:07 | 39.13133 | 117.34575 | 21 ft | 23 kts | 334° |
| 2026-05-04 12:07 | 39.13278 | 117.34485 | 21 ft | 24 kts | 334° |
| 2026-05-04 12:07 | 39.13429 | 117.34392 | 20 ft | 25 kts | 334° |
| 2026-05-04 12:08 | 39.13586 | 117.34296 | 19 ft | 26 kts | 334° |
| 2026-05-04 12:08 | 39.13750 | 117.34196 | 19 ft | 26 kts | 334° |
| 2026-05-04 12:08 | 39.13828 | 117.34105 | 19 ft | 12 kts | 258° |
| 2026-05-04 12:08 | 39.13791 | 117.34006 | 20 ft | 13 kts | 244° |
| 2026-05-04 12:09 | 39.13754 | 117.33901 | 21 ft | 13 kts | 245° |
| 2026-05-04 12:09 | 39.13703 | 117.33837 | 21 ft | 10 kts | 169° |
| 2026-05-04 12:09 | 39.13684 | 117.33848 | 21 ft | 2 kts | 153° |
| 2026-05-04 12:09 | 39.13533 | 117.33944 | 20 ft | 58 kts | 154° |
| 2026-05-04 12:10 | 39.12967 | 117.34289 | 19 ft | 119 kts | 154° |
| 2026-05-04 12:10 | 39.12072 | 117.34840 | 22 ft | 165 kts | 154° |
| 2026-05-04 12:10 | 39.10942 | 117.35532 | 219 ft | 187 kts | 155° |
| 2026-05-04 12:10 | 39.09771 | 117.36252 | 775 ft | 185 kts | 157° |
| 2026-05-04 12:11 | 39.08602 | 117.36967 | 1171 ft | 192 kts | 160° |
| 2026-05-04 12:11 | 39.07336 | 117.37734 | 1324 ft | 212 kts | 160° |
| 2026-05-04 12:11 | 39.05943 | 117.38585 | 1607 ft | 227 kts | 159° |
| 2026-05-04 12:11 | 39.04522 | 117.39464 | 2109 ft | 235 kts | 159° |
| 2026-05-04 12:12 | 39.02998 | 117.40408 | 2686 ft | 244 kts | 159° |
| 2026-05-04 12:12 | 39.01457 | 117.41360 | 3012 ft | 251 kts | 159° |
| 2026-05-04 12:12 | 38.99869 | 117.42352 | 3555 ft | 257 kts | 155° |
| 2026-05-04 12:12 | 38.98437 | 117.43785 | 4217 ft | 269 kts | 134° |
| 2026-05-04 12:13 | 38.97449 | 117.45860 | 4884 ft | 279 kts | 112° |
| 2026-05-04 12:14 | 39.01280 | 117.77263 | 10845 ft | 373 kts | 71° |
| 2026-05-04 12:15 | 39.02760 | 117.83920 | 11541 ft | 393 kts | 72° |
| 2026-05-04 12:15 | 39.04248 | 117.90721 | 12784 ft | 396 kts | 72° |
| 2026-05-04 12:15 | 39.05743 | 117.97568 | 13946 ft | 400 kts | 72° |
| 2026-05-04 12:15 | 39.06594 | 118.04703 | 14884 ft | 410 kts | 90° |
| 2026-05-04 12:16 | 39.05654 | 118.12001 | 15824 ft | 418 kts | 100° |
| 2026-05-04 12:16 | 39.04483 | 118.19382 | 16732 ft | 424 kts | 100° |
| 2026-05-04 12:16 | 39.03321 | 118.26851 | 17652 ft | 429 kts | 101° |
| 2026-05-04 12:16 | 39.02128 | 118.34418 | 18484 ft | 434 kts | 100° |
| 2026-05-04 12:17 | 39.00902 | 118.42077 | 19300 ft | 438 kts | 101° |
| 2026-05-04 12:17 | 38.99649 | 118.49752 | 20121 ft | 441 kts | 101° |
| 2026-05-04 12:17 | 38.98389 | 118.57519 | 20915 ft | 445 kts | 100° |
| 2026-05-04 12:17 | 38.97123 | 118.65333 | 21703 ft | 449 kts | 100° |
| 2026-05-04 12:18 | 38.95301 | 118.76411 | 22793 ft | 453 kts | 100° |
| 2026-05-04 12:18 | 38.92678 | 118.92409 | 24142 ft | 461 kts | 100° |
| 2026-05-04 12:18 | 38.90447 | 119.05845 | 25103 ft | 467 kts | 100° |
| 2026-05-04 12:18 | 38.89210 | 119.13250 | 25602 ft | 471 kts | 100° |
| 2026-05-04 12:19 | 38.87827 | 119.21497 | 26165 ft | 475 kts | 100° |
| 2026-05-04 12:19 | 38.86436 | 119.29692 | 26767 ft | 476 kts | 99° |
| 2026-05-04 12:19 | 38.85031 | 119.37963 | 27509 ft | 474 kts | 100° |
| 2026-05-04 12:19 | 38.83627 | 119.46234 | 28224 ft | 473 kts | 100° |
| 2026-05-04 12:20 | 38.82222 | 119.54460 | 28941 ft | 472 kts | 100° |
| 2026-05-04 12:20 | 38.80807 | 119.62654 | 29651 ft | 470 kts | 100° |
| 2026-05-04 12:20 | 38.79383 | 119.70841 | 30278 ft | 469 kts | 100° |
| 2026-05-04 12:20 | 38.77665 | 119.78898 | 30824 ft | 471 kts | 111° |
| 2026-05-04 12:21 | 38.74554 | 119.85493 | 31344 ft | 475 kts | 129° |
| 2026-05-04 12:21 | 38.72248 | 119.88527 | 31619 ft | 476 kts | 138° |
| 2026-05-04 12:21 | 38.67780 | 119.94569 | 32142 ft | 474 kts | 123° |
| 2026-05-04 12:22 | 38.66093 | 119.98237 | 32416 ft | 471 kts | 113° |
| 2026-05-04 12:22 | 38.64903 | 120.02065 | 32677 ft | 469 kts | 104° |
| 2026-05-04 12:22 | 38.64140 | 120.06108 | 32942 ft | 467 kts | 99° |
| 2026-05-04 12:22 | 38.63478 | 120.10228 | 33211 ft | 467 kts | 99° |
| 2026-05-04 12:23 | 38.62824 | 120.14241 | 33482 ft | 467 kts | 99° |
| 2026-05-04 12:23 | 38.62144 | 120.18355 | 33748 ft | 467 kts | 100° |
| 2026-05-04 12:23 | 38.61470 | 120.22416 | 34013 ft | 467 kts | 100° |
| 2026-05-04 12:23 | 38.60806 | 120.26424 | 34218 ft | 467 kts | 99° |
| 2026-05-04 12:24 | 38.60130 | 120.30541 | 34416 ft | 468 kts | 99° |
| 2026-05-04 12:24 | 38.59468 | 120.34613 | 34598 ft | 468 kts | 99° |
| 2026-05-04 12:24 | 38.58806 | 120.38692 | 34781 ft | 469 kts | 99° |
| 2026-05-04 12:24 | 38.58143 | 120.42777 | 34948 ft | 470 kts | 100° |
| 2026-05-04 12:25 | 38.56813 | 120.50921 | 34972 ft | 471 kts | 100° |
| 2026-05-04 12:25 | 38.55464 | 120.59111 | 34975 ft | 471 kts | 100° |
| 2026-05-04 12:26 | 38.54135 | 120.67312 | 34983 ft | 471 kts | 100° |
| 2026-05-04 12:26 | 38.52819 | 120.75506 | 34986 ft | 471 kts | 100° |
| 2026-05-04 12:27 | 38.51483 | 120.83694 | 34985 ft | 470 kts | 99° |
| 2026-05-04 12:27 | 38.50136 | 120.91862 | 34987 ft | 470 kts | 100° |
| 2026-05-04 12:28 | 38.48791 | 121.00023 | 34990 ft | 470 kts | 100° |
| 2026-05-04 12:28 | 38.47437 | 121.08189 | 34991 ft | 470 kts | 100° |
| 2026-05-04 12:29 | 38.46083 | 121.16349 | 34988 ft | 470 kts | 100° |
| 2026-05-04 12:29 | 38.44744 | 121.24516 | 34991 ft | 470 kts | 100° |
| 2026-05-04 12:30 | 38.43425 | 121.32688 | 34995 ft | 470 kts | 100° |
| 2026-05-04 12:30 | 38.42110 | 121.40868 | 34994 ft | 471 kts | 100° |
| 2026-05-04 12:31 | 38.40783 | 121.49041 | 34996 ft | 471 kts | 100° |
| 2026-05-04 12:31 | 38.39430 | 121.57208 | 34999 ft | 471 kts | 101° |
| 2026-05-04 12:32 | 38.37378 | 121.69454 | 35005 ft | 471 kts | 101° |
| 2026-05-04 12:33 | 38.36002 | 121.77613 | 35003 ft | 471 kts | 101° |
| 2026-05-04 12:33 | 38.34618 | 121.85769 | 35007 ft | 472 kts | 101° |
| 2026-05-04 12:34 | 38.33245 | 121.93883 | 35006 ft | 472 kts | 101° |
| 2026-05-04 12:34 | 38.31854 | 122.02049 | 35016 ft | 472 kts | 101° |
| 2026-05-04 12:35 | 38.30454 | 122.10213 | 35020 ft | 472 kts | 101° |
| 2026-05-04 12:35 | 38.29045 | 122.18384 | 35028 ft | 473 kts | 101° |
| 2026-05-04 12:36 | 38.27645 | 122.26557 | 35027 ft | 473 kts | 100° |
| 2026-05-04 12:36 | 38.26614 | 122.33376 | 35032 ft | 472 kts | 99° |
| 2026-05-04 12:37 | 38.25230 | 122.41533 | 35034 ft | 473 kts | 109° |
| 2026-05-04 12:37 | 38.22105 | 122.48863 | 35027 ft | 474 kts | 129° |
| 2026-05-04 12:38 | 38.17554 | 122.54911 | 35036 ft | 474 kts | 135° |
| 2026-05-04 12:38 | 38.12918 | 122.60865 | 35036 ft | 474 kts | 135° |
| 2026-05-04 12:39 | 38.08286 | 122.66837 | 35043 ft | 474 kts | 135° |
| 2026-05-04 12:39 | 38.03671 | 122.72834 | 35046 ft | 475 kts | 135° |
| 2026-05-04 12:40 | 37.99071 | 122.78845 | 35041 ft | 475 kts | 135° |
| 2026-05-04 12:40 | 37.94461 | 122.84838 | 35049 ft | 475 kts | 135° |
| 2026-05-04 12:41 | 37.89843 | 122.90803 | 35049 ft | 475 kts | 135° |
| 2026-05-04 12:41 | 37.85212 | 122.96764 | 35056 ft | 474 kts | 136° |
| 2026-05-04 12:42 | 37.80583 | 123.02716 | 35055 ft | 475 kts | 136° |
| 2026-05-04 12:42 | 37.75950 | 123.08659 | 35062 ft | 475 kts | 136° |
| 2026-05-04 12:43 | 37.71319 | 123.14601 | 35064 ft | 474 kts | 136° |
| 2026-05-04 12:43 | 37.66686 | 123.20543 | 35072 ft | 475 kts | 136° |
| 2026-05-04 12:44 | 37.62071 | 123.26438 | 35069 ft | 475 kts | 136° |
| 2026-05-04 12:44 | 37.57446 | 123.32342 | 35075 ft | 475 kts | 134° |
| 2026-05-04 12:45 | 37.53353 | 123.38899 | 35075 ft | 477 kts | 128° |
| 2026-05-04 12:45 | 37.49343 | 123.45645 | 35083 ft | 479 kts | 128° |
| 2026-05-04 12:46 | 37.45361 | 123.52305 | 35084 ft | 479 kts | 128° |
| 2026-05-04 12:46 | 37.41349 | 123.59007 | 35084 ft | 479 kts | 128° |
| 2026-05-04 12:47 | 37.37338 | 123.65705 | 35081 ft | 479 kts | 128° |
| 2026-05-04 12:47 | 37.33320 | 123.72407 | 35090 ft | 481 kts | 129° |
| 2026-05-04 12:48 | 37.29280 | 123.79119 | 35094 ft | 482 kts | 129° |
| 2026-05-04 12:48 | 37.25236 | 123.85825 | 35094 ft | 482 kts | 129° |
| 2026-05-04 12:49 | 37.21187 | 123.92527 | 35093 ft | 482 kts | 128° |
| 2026-05-04 12:49 | 37.18102 | 124.00000 | 35096 ft | 487 kts | 108° |
| 2026-05-04 12:50 | 37.17021 | 124.08358 | 35097 ft | 488 kts | 89° |
| 2026-05-04 12:50 | 37.17320 | 124.16849 | 35098 ft | 488 kts | 86° |
| 2026-05-04 12:51 | 37.17631 | 124.25363 | 35096 ft | 490 kts | 86° |
| 2026-05-04 12:51 | 37.17873 | 124.33851 | 35101 ft | 491 kts | 88° |
| 2026-05-04 12:52 | 37.18055 | 124.42459 | 35109 ft | 491 kts | 88° |
| 2026-05-04 12:52 | 37.18230 | 124.50946 | 35096 ft | 489 kts | 88° |
| 2026-05-04 12:53 | 37.18421 | 124.59479 | 35102 ft | 490 kts | 88° |
| 2026-05-04 12:53 | 37.18616 | 124.68021 | 35103 ft | 490 kts | 88° |
| 2026-05-04 12:54 | 37.18801 | 124.76565 | 35104 ft | 491 kts | 88° |
| 2026-05-04 12:54 | 37.18979 | 124.85151 | 35105 ft | 492 kts | 88° |
| 2026-05-04 12:55 | 37.19146 | 124.93738 | 35102 ft | 492 kts | 88° |
| 2026-05-04 12:55 | 37.19307 | 125.02327 | 35105 ft | 494 kts | 88° |
| 2026-05-04 12:56 | 37.19465 | 125.10926 | 35107 ft | 492 kts | 88° |
| 2026-05-04 12:56 | 37.19619 | 125.19512 | 35109 ft | 492 kts | 88° |
| 2026-05-04 12:57 | 37.19768 | 125.28099 | 35108 ft | 494 kts | 88° |
| 2026-05-04 12:57 | 37.19903 | 125.36720 | 35108 ft | 495 kts | 88° |
| 2026-05-04 12:58 | 37.20033 | 125.45353 | 35108 ft | 495 kts | 88° |
| 2026-05-04 12:58 | 37.20163 | 125.53991 | 35108 ft | 497 kts | 89° |
| 2026-05-04 12:59 | 37.20286 | 125.62663 | 35110 ft | 496 kts | 89° |
| 2026-05-04 12:59 | 37.20392 | 125.71289 | 35111 ft | 495 kts | 89° |
| 2026-05-04 13:00 | 37.20499 | 125.79925 | 35114 ft | 497 kts | 89° |
| 2026-05-04 13:00 | 37.20604 | 125.88557 | 35117 ft | 499 kts | 89° |
| 2026-05-04 13:01 | 37.20699 | 125.97255 | 35116 ft | 499 kts | 89° |
| 2026-05-04 13:01 | 37.20787 | 126.05950 | 35111 ft | 499 kts | 89° |
| 2026-05-04 13:02 | 37.20876 | 126.14648 | 35111 ft | 499 kts | 89° |
| 2026-05-04 13:02 | 37.20954 | 126.23339 | 35109 ft | 498 kts | 89° |
| 2026-05-04 13:03 | 37.21019 | 126.32048 | 35106 ft | 500 kts | 89° |
| 2026-05-04 13:03 | 37.21084 | 126.40777 | 35105 ft | 501 kts | 89° |
| 2026-05-04 13:04 | 37.21144 | 126.49512 | 35102 ft | 501 kts | 89° |
| 2026-05-04 13:04 | 37.21194 | 126.58223 | 35099 ft | 503 kts | 90° |
| 2026-05-04 13:05 | 37.21237 | 126.66994 | 35115 ft | 503 kts | 89° |
| 2026-05-04 13:05 | 37.21278 | 126.75745 | 35084 ft | 501 kts | 90° |
| 2026-05-04 13:06 | 37.21316 | 126.84509 | 35093 ft | 503 kts | 90° |
| 2026-05-04 13:06 | 37.21651 | 126.93266 | 35085 ft | 503 kts | 78° |
| 2026-05-04 13:07 | 37.23838 | 127.01477 | 35084 ft | 498 kts | 59° |
| 2026-05-04 13:07 | 37.27862 | 127.08443 | 35092 ft | 491 kts | 44° |
| 2026-05-04 13:08 | 37.32417 | 127.14829 | 35089 ft | 490 kts | 44° |
| 2026-05-04 13:08 | 37.36953 | 127.21227 | 35083 ft | 490 kts | 44° |
| 2026-05-04 13:09 | 37.41488 | 127.27647 | 35083 ft | 491 kts | 44° |
| 2026-05-04 13:09 | 37.45955 | 127.34146 | 35085 ft | 493 kts | 50° |
| 2026-05-04 13:10 | 37.49155 | 127.41823 | 35079 ft | 500 kts | 70° |
| 2026-05-04 13:10 | 37.50724 | 127.50318 | 35074 ft | 502 kts | 77° |
| 2026-05-04 13:11 | 37.52122 | 127.59000 | 35083 ft | 503 kts | 77° |
| 2026-05-04 13:11 | 37.53501 | 127.67640 | 35081 ft | 503 kts | 77° |
| 2026-05-04 13:12 | 37.54867 | 127.76295 | 35088 ft | 505 kts | 77° |
| 2026-05-04 13:12 | 37.56227 | 127.84922 | 35085 ft | 505 kts | 77° |
| 2026-05-04 13:13 | 37.57590 | 127.93592 | 35089 ft | 504 kts | 77° |
| 2026-05-04 13:13 | 37.58954 | 128.02284 | 35091 ft | 507 kts | 77° |
| 2026-05-04 13:14 | 37.60314 | 128.11018 | 35091 ft | 508 kts | 78° |
| 2026-05-04 13:14 | 37.61653 | 128.19753 | 35100 ft | 507 kts | 78° |
| 2026-05-04 13:15 | 37.62994 | 128.28489 | 35090 ft | 508 kts | 78° |
| 2026-05-04 13:15 | 37.64340 | 128.37239 | 35092 ft | 508 kts | 78° |
| 2026-05-04 13:16 | 37.65679 | 128.45993 | 35087 ft | 508 kts | 78° |
| 2026-05-04 13:16 | 37.67004 | 128.54745 | 35086 ft | 507 kts | 78° |
| 2026-05-04 13:17 | 37.68315 | 128.63489 | 35078 ft | 506 kts | 78° |
| 2026-05-04 13:17 | 37.69616 | 128.72252 | 35075 ft | 509 kts | 79° |
| 2026-05-04 13:18 | 37.70029 | 128.81164 | 35071 ft | 510 kts | 91° |
| 2026-05-04 13:18 | 37.69920 | 128.90123 | 35057 ft | 511 kts | 91° |
| 2026-05-04 13:19 | 37.69812 | 128.99112 | 35058 ft | 511 kts | 91° |
| 2026-05-04 13:19 | 37.69705 | 129.08086 | 35054 ft | 511 kts | 91° |
| 2026-05-04 13:20 | 37.69593 | 129.17072 | 35052 ft | 513 kts | 91° |
| 2026-05-04 13:20 | 37.69462 | 129.26100 | 35049 ft | 514 kts | 91° |
| 2026-05-04 13:21 | 37.69326 | 129.35072 | 35051 ft | 514 kts | 91° |
| 2026-05-04 13:21 | 37.69183 | 129.44133 | 35057 ft | 518 kts | 91° |
| 2026-05-04 13:22 | 37.69034 | 129.53252 | 35054 ft | 520 kts | 91° |
| 2026-05-04 13:22 | 37.68912 | 129.60900 | 35054 ft | 520 kts | 91° |
| 2026-05-04 13:23 | 37.68756 | 129.70031 | 35056 ft | 520 kts | 92° |
| 2026-05-04 13:23 | 37.68552 | 129.80680 | 35054 ft | 523 kts | 92° |
| 2026-05-04 13:24 | 37.68400 | 129.88371 | 35059 ft | 524 kts | 92° |
| 2026-05-04 13:24 | 37.68219 | 129.97565 | 35057 ft | 523 kts | 92° |
| 2026-05-04 13:25 | 37.67927 | 130.11288 | 35058 ft | 526 kts | 92° |
| 2026-05-04 13:25 | 37.67726 | 130.20548 | 35057 ft | 528 kts | 92° |
| 2026-05-04 13:26 | 37.67520 | 130.29850 | 35060 ft | 528 kts | 92° |
| 2026-05-04 13:26 | 37.67302 | 130.39106 | 35071 ft | 528 kts | 92° |
| 2026-05-04 13:27 | 37.67072 | 130.48390 | 35061 ft | 532 kts | 92° |
| 2026-05-04 13:27 | 37.66839 | 130.57751 | 35060 ft | 533 kts | 92° |
| 2026-05-04 13:28 | 37.66606 | 130.67044 | 35062 ft | 533 kts | 93° |
| 2026-05-04 13:28 | 37.66363 | 130.76409 | 35060 ft | 533 kts | 93° |
| 2026-05-04 13:29 | 37.66099 | 130.85774 | 35090 ft | 536 kts | 93° |
| 2026-05-04 13:29 | 37.65829 | 130.95201 | 35059 ft | 538 kts | 93° |
| 2026-05-04 13:30 | 37.65559 | 131.04649 | 35063 ft | 539 kts | 93° |
| 2026-05-04 13:30 | 37.65277 | 131.14112 | 35060 ft | 539 kts | 93° |
| 2026-05-04 13:31 | 37.64991 | 131.23571 | 35065 ft | 541 kts | 94° |
| 2026-05-04 13:31 | 37.64692 | 131.33058 | 35062 ft | 542 kts | 94° |
| 2026-05-04 13:32 | 37.64380 | 131.42574 | 35060 ft | 543 kts | 94° |
| 2026-05-04 13:32 | 37.64063 | 131.52096 | 35067 ft | 543 kts | 94° |
| 2026-05-04 13:33 | 37.63792 | 131.61556 | 35061 ft | 543 kts | 92° |
| 2026-05-04 13:33 | 37.63841 | 131.71090 | 35063 ft | 543 kts | 89° |
| 2026-05-04 13:34 | 37.64027 | 131.80614 | 35072 ft | 544 kts | 89° |
| 2026-05-04 13:34 | 37.64122 | 131.90175 | 35061 ft | 545 kts | 90° |
| 2026-05-04 13:35 | 37.64122 | 132.04550 | 35062 ft | 548 kts | 91° |
| 2026-05-04 13:36 | 37.64137 | 132.14170 | 35060 ft | 548 kts | 91° |
| 2026-05-04 13:36 | 37.64161 | 132.23783 | 35077 ft | 549 kts | 91° |
| 2026-05-04 13:37 | 37.64175 | 132.33482 | 35063 ft | 555 kts | 91° |
| 2026-05-04 13:37 | 37.64176 | 132.43251 | 35061 ft | 558 kts | 91° |
| 2026-05-04 13:38 | 37.64160 | 132.53045 | 35060 ft | 558 kts | 91° |
| 2026-05-04 13:38 | 37.64146 | 132.62843 | 35060 ft | 558 kts | 91° |
| 2026-05-04 13:39 | 37.64557 | 132.72612 | 35053 ft | 558 kts | 84° |
| 2026-05-04 13:39 | 37.65303 | 132.82336 | 35061 ft | 560 kts | 85° |
| 2026-05-04 13:40 | 37.66030 | 132.92123 | 35052 ft | 561 kts | 85° |
| 2026-05-04 13:40 | 37.66755 | 133.01923 | 35060 ft | 560 kts | 85° |
| 2026-05-04 13:41 | 37.67472 | 133.11709 | 35050 ft | 560 kts | 85° |
| 2026-05-04 13:41 | 37.68505 | 133.26026 | 35041 ft | 561 kts | 85° |
| 2026-05-04 13:42 | 37.70195 | 133.49999 | 35051 ft | 563 kts | 85° |
| 2026-05-04 13:42 | 37.70871 | 133.59846 | 35054 ft | 563 kts | 85° |
| 2026-05-04 13:43 | 37.71590 | 133.69693 | 35046 ft | 563 kts | 82° |
| 2026-05-04 13:43 | 37.73553 | 133.79212 | 35072 ft | 562 kts | 66° |
| 2026-05-04 13:44 | 37.76338 | 133.88447 | 35054 ft | 562 kts | 67° |
| 2026-05-04 13:44 | 37.79107 | 133.97692 | 35055 ft | 563 kts | 67° |
| 2026-05-04 13:45 | 37.81859 | 134.06955 | 35057 ft | 563 kts | 67° |
| 2026-05-04 13:45 | 37.84604 | 134.16229 | 35060 ft | 563 kts | 67° |
| 2026-05-04 13:46 | 37.87347 | 134.25508 | 35054 ft | 563 kts | 67° |
| 2026-05-04 13:46 | 37.90056 | 134.34736 | 35043 ft | 562 kts | 67° |
| 2026-05-04 13:47 | 37.92782 | 134.44012 | 35050 ft | 562 kts | 67° |
| 2026-05-04 13:47 | 37.95513 | 134.53297 | 35051 ft | 562 kts | 67° |
| 2026-05-04 13:48 | 37.98231 | 134.62592 | 35049 ft | 562 kts | 67° |
| 2026-05-04 13:48 | 38.00928 | 134.71894 | 35048 ft | 564 kts | 68° |
| 2026-05-04 13:49 | 38.03637 | 134.81241 | 35046 ft | 565 kts | 68° |
| 2026-05-04 13:49 | 38.06342 | 134.90597 | 35047 ft | 565 kts | 68° |
| 2026-05-04 13:50 | 38.09038 | 134.99972 | 35043 ft | 565 kts | 68° |
| 2026-05-04 13:50 | 38.11717 | 135.09342 | 35067 ft | 565 kts | 68° |
| 2026-05-04 13:51 | 38.14391 | 135.18717 | 35045 ft | 564 kts | 68° |
| 2026-05-04 13:51 | 38.17071 | 135.28075 | 35043 ft | 564 kts | 68° |
| 2026-05-04 13:52 | 38.21064 | 135.42142 | 35040 ft | 563 kts | 68° |
| 2026-05-04 13:53 | 38.23703 | 135.51507 | 35042 ft | 563 kts | 68° |
| 2026-05-04 13:53 | 38.26341 | 135.60889 | 35041 ft | 563 kts | 68° |
| 2026-05-04 13:54 | 38.30286 | 135.74994 | 35032 ft | 566 kts | 69° |
| 2026-05-04 13:55 | 38.34242 | 135.89198 | 35061 ft | 568 kts | 70° |
| 2026-05-04 13:55 | 38.38175 | 136.03425 | 35031 ft | 567 kts | 70° |
| 2026-05-04 13:56 | 38.40793 | 136.12913 | 35028 ft | 567 kts | 70° |
| 2026-05-04 13:57 | 38.44683 | 136.27088 | 35027 ft | 567 kts | 70° |
| 2026-05-04 13:58 | 38.49867 | 136.46078 | 35026 ft | 567 kts | 70° |
| 2026-05-04 13:58 | 38.53737 | 136.60366 | 35029 ft | 568 kts | 70° |
| 2026-05-04 13:59 | 38.56310 | 136.69902 | 35025 ft | 568 kts | 70° |
| 2026-05-04 14:00 | 38.60151 | 136.84229 | 35028 ft | 569 kts | 71° |
| 2026-05-04 14:00 | 38.63991 | 136.98623 | 35015 ft | 570 kts | 71° |
| 2026-05-04 14:01 | 38.66545 | 137.08234 | 35017 ft | 571 kts | 71° |
| 2026-05-04 14:02 | 38.70368 | 137.22676 | 35013 ft | 571 kts | 71° |
| 2026-05-04 14:02 | 38.72906 | 137.32310 | 35001 ft | 571 kts | 72° |
| 2026-05-04 14:03 | 38.75427 | 137.41960 | 35005 ft | 571 kts | 72° |
| 2026-05-04 14:03 | 38.77942 | 137.51604 | 35006 ft | 571 kts | 72° |
| 2026-05-04 14:04 | 38.81699 | 137.66076 | 34998 ft | 570 kts | 72° |
| 2026-05-04 14:04 | 38.84194 | 137.75734 | 34997 ft | 570 kts | 72° |
| 2026-05-04 14:05 | 38.87921 | 137.90229 | 34995 ft | 572 kts | 73° |
| 2026-05-04 14:06 | 38.90558 | 137.99820 | 34982 ft | 574 kts | 65° |
| 2026-05-04 14:06 | 38.94751 | 138.08464 | 34979 ft | 569 kts | 46° |
| 2026-05-04 14:07 | 39.00022 | 138.15898 | 35023 ft | 569 kts | 43° |
| 2026-05-04 14:07 | 39.05342 | 138.23387 | 34976 ft | 566 kts | 44° |
| 2026-05-04 14:08 | 39.10639 | 138.30871 | 34961 ft | 565 kts | 44° |
| 2026-05-04 14:08 | 39.15929 | 138.38367 | 34963 ft | 565 kts | 44° |
| 2026-05-04 14:09 | 39.23878 | 138.49617 | 34962 ft | 566 kts | 44° |
| 2026-05-04 14:10 | 39.30913 | 138.59629 | 34950 ft | 566 kts | 45° |
| 2026-05-04 14:10 | 39.36199 | 138.67190 | 34951 ft | 568 kts | 45° |
| 2026-05-04 14:11 | 39.41497 | 138.74769 | 34943 ft | 568 kts | 45° |
| 2026-05-04 14:11 | 39.56983 | 138.97022 | 34881 ft | 565 kts | 45° |
| 2026-05-04 14:12 | 39.67440 | 139.12167 | 34947 ft | 564 kts | 45° |
| 2026-05-04 14:13 | 39.83133 | 139.35010 | 34909 ft | 564 kts | 46° |
| 2026-05-04 14:13 | 39.93599 | 139.50341 | 34840 ft | 562 kts | 46° |
| 2026-05-04 14:14 | 40.03904 | 139.65501 | 34876 ft | 560 kts | 46° |
| 2026-05-04 14:14 | 40.19249 | 139.88223 | 34901 ft | 554 kts | 47° |
| 2026-05-04 14:15 | 40.39541 | 140.18551 | 34815 ft | 558 kts | 47° |
| 2026-05-04 14:16 | 40.54855 | 140.41605 | 34851 ft | 559 kts | 49° |
| 2026-05-04 14:17 | 40.65063 | 140.57104 | 34744 ft | 556 kts | 49° |
| 2026-05-04 14:17 | 40.70150 | 140.64774 | 34715 ft | 557 kts | 44° |
| 2026-05-04 14:18 | 41.02348 | 140.95987 | 34781 ft | 551 kts | 44° |
| 2026-05-04 14:19 | 41.33126 | 141.38714 | 34437 ft | 559 kts | 46° |
| 2026-05-04 14:19 | 41.35811 | 141.42473 | 34206 ft | 559 kts | 46° |
| 2026-05-04 14:19 | 41.38486 | 141.46232 | 33977 ft | 559 kts | 46° |
| 2026-05-04 14:19 | 41.41163 | 141.50002 | 33733 ft | 561 kts | 46° |
| 2026-05-04 14:20 | 41.43844 | 141.53789 | 33494 ft | 562 kts | 46° |
| 2026-05-04 14:20 | 41.46531 | 141.57589 | 33269 ft | 562 kts | 46° |
| 2026-05-04 14:20 | 41.49207 | 141.61371 | 33010 ft | 558 kts | 46° |
| 2026-05-04 14:21 | 41.54513 | 141.68867 | 32467 ft | 556 kts | 46° |
| 2026-05-04 14:21 | 41.57168 | 141.72629 | 32181 ft | 558 kts | 46° |
| 2026-05-04 14:21 | 41.59834 | 141.76412 | 31799 ft | 559 kts | 46° |
| 2026-05-04 14:21 | 41.62499 | 141.80194 | 31422 ft | 559 kts | 46° |
| 2026-05-04 14:22 | 41.65167 | 141.83984 | 31141 ft | 559 kts | 46° |
| 2026-05-04 14:22 | 41.67832 | 141.87777 | 30899 ft | 560 kts | 46° |
| 2026-05-04 14:22 | 41.71249 | 141.92655 | 30571 ft | 561 kts | 46° |
| 2026-05-04 14:22 | 41.76513 | 142.00203 | 30100 ft | 561 kts | 46° |
| 2026-05-04 14:23 | 41.87183 | 142.15512 | 29046 ft | 561 kts | 47° |
| 2026-05-04 14:23 | 41.92487 | 142.23162 | 28499 ft | 558 kts | 47° |
| 2026-05-04 14:23 | 41.97725 | 142.30760 | 27959 ft | 550 kts | 47° |
| 2026-05-04 14:24 | 42.02927 | 142.38305 | 27422 ft | 548 kts | 46° |
| 2026-05-04 14:24 | 42.07772 | 142.45327 | 26932 ft | 544 kts | 46° |
| 2026-05-04 14:24 | 42.09510 | 142.47845 | 26741 ft | 543 kts | 46° |